createdAt,value
2022-08-24T00:01:56.527Z,99.90
2022-08-24T00:04:24.919Z,99.90
2022-08-24T00:06:53.603Z,99.90
2022-08-24T00:09:22.293Z,99.90
2022-08-24T00:11:51.691Z,99.90
2022-08-24T00:14:19.884Z,99.90
2022-08-24T00:16:48.037Z,99.90
2022-08-24T00:19:16.228Z,99.90
2022-08-24T00:21:45.047Z,99.90
2022-08-24T00:24:13.104Z,99.90
2022-08-24T00:26:41.209Z,99.90
2022-08-24T00:29:10.676Z,99.90
2022-08-24T00:31:38.546Z,99.90
2022-08-24T00:34:06.857Z,99.90
2022-08-24T00:36:35.236Z,99.90
2022-08-24T00:39:04.244Z,99.90
2022-08-24T00:41:32.885Z,99.90
2022-08-24T00:44:04.435Z,99.90
2022-08-24T00:46:41.970Z,99.90
2022-08-24T00:49:14.696Z,99.90
2022-08-24T00:51:56.301Z,99.90
2022-08-24T00:54:27.897Z,99.90
2022-08-24T00:57:00.477Z,99.90
2022-08-24T00:59:33.669Z,99.90
2022-08-24T01:02:15.156Z,99.90
2022-08-24T01:04:53.173Z,99.90
2022-08-24T01:07:23.833Z,99.90
2022-08-24T01:09:53.265Z,99.90
2022-08-24T01:12:22.318Z,99.90
2022-08-24T01:14:50.814Z,99.90
2022-08-24T01:17:39.047Z,99.90
2022-08-24T01:20:09.682Z,99.90
2022-08-24T01:23:00.737Z,99.90
2022-08-24T01:25:31.912Z,99.90
2022-08-24T01:28:05.497Z,99.90
2022-08-24T01:30:36.186Z,99.90
2022-08-24T01:33:07.565Z,99.90
2022-08-24T01:35:37.292Z,99.90
2022-08-24T01:38:09.717Z,99.90
2022-08-24T01:40:43.894Z,99.90
2022-08-24T01:43:13.606Z,99.90
2022-08-24T01:45:42.077Z,99.90
2022-08-24T01:48:10.144Z,99.90
2022-08-24T01:50:38.380Z,99.90
2022-08-24T01:53:07.801Z,99.90
2022-08-24T01:55:36.158Z,99.90
2022-08-24T01:58:06.311Z,99.90
2022-08-24T02:00:36.596Z,99.90
2022-08-24T02:03:05.256Z,99.90
2022-08-24T02:05:34.480Z,99.90
2022-08-24T02:08:02.777Z,99.90
2022-08-24T02:10:31.659Z,99.90
2022-08-24T02:13:00.287Z,99.90
2022-08-24T02:15:33.522Z,99.90
2022-08-24T02:18:01.955Z,99.90
2022-08-24T02:20:30.411Z,99.90
2022-08-24T02:22:58.717Z,99.90
2022-08-24T02:25:30.391Z,99.90
2022-08-24T02:27:59.538Z,99.90
2022-08-24T02:30:29.135Z,99.90
2022-08-24T02:32:59.049Z,99.90
2022-08-24T02:35:28.351Z,99.90
2022-08-24T02:37:56.487Z,99.90
2022-08-24T02:40:25.359Z,99.90
2022-08-24T02:42:53.954Z,99.90
2022-08-24T02:45:23.885Z,99.90
2022-08-24T02:47:53.731Z,99.90
2022-08-24T02:50:23.562Z,99.90
2022-08-24T02:52:51.590Z,99.90
2022-08-24T02:55:20.604Z,99.90
2022-08-24T02:57:50.506Z,99.90
2022-08-24T03:00:21.546Z,99.90
2022-08-24T03:02:50.655Z,99.90
2022-08-24T03:05:19.881Z,99.90
2022-08-24T03:07:49.465Z,99.90
2022-08-24T03:10:21.082Z,99.90
2022-08-24T03:12:49.685Z,99.90
2022-08-24T03:15:22.400Z,99.90
2022-08-24T03:17:50.807Z,99.90
2022-08-24T03:20:21.020Z,99.90
2022-08-24T03:22:50.481Z,99.90
2022-08-24T03:25:20.545Z,99.90
2022-08-24T03:27:48.407Z,99.90
2022-08-24T03:30:18.670Z,99.90
2022-08-24T03:32:46.725Z,99.90
2022-08-24T03:35:15.796Z,99.90
2022-08-24T03:37:44.582Z,99.90
2022-08-24T03:40:23.137Z,99.90
2022-08-24T03:42:53.477Z,99.90
2022-08-24T03:45:22.820Z,99.90
2022-08-24T03:47:51.152Z,99.90
2022-08-24T03:50:20.813Z,99.90
2022-08-24T03:52:49.292Z,99.90
2022-08-24T03:55:19.130Z,99.90
2022-08-24T03:57:47.175Z,99.90
2022-08-24T04:00:15.789Z,99.90
2022-08-24T04:02:44.368Z,99.90
2022-08-24T04:05:13.265Z,99.90
2022-08-24T04:07:41.325Z,99.90
2022-08-24T04:10:11.361Z,99.90
2022-08-24T04:12:41.141Z,99.90
2022-08-24T04:15:10.198Z,99.90
2022-08-24T04:17:38.226Z,99.90
2022-08-24T04:20:07.584Z,99.90
2022-08-24T04:22:36.379Z,99.90
2022-08-24T04:25:09.251Z,99.90
2022-08-24T04:27:37.967Z,99.90
2022-08-24T04:30:08.753Z,99.90
2022-08-24T04:32:36.988Z,99.90
2022-08-24T04:35:06.379Z,99.90
2022-08-24T04:37:34.422Z,99.90
2022-08-24T04:40:03.105Z,99.90
2022-08-24T04:42:32.184Z,99.90
2022-08-24T04:45:01.765Z,99.90
2022-08-24T04:47:32.517Z,99.90
2022-08-24T04:50:00.556Z,99.90
2022-08-24T04:52:30.158Z,99.90
2022-08-24T04:54:58.217Z,99.90
2022-08-24T04:57:26.297Z,99.90
2022-08-24T04:59:57.500Z,99.90
2022-08-24T05:02:25.671Z,99.90
2022-08-24T05:04:56.984Z,99.90
2022-08-24T05:07:25.615Z,99.90
2022-08-24T05:09:53.668Z,99.90
2022-08-24T05:12:21.903Z,99.90
2022-08-24T05:14:50.144Z,99.90
2022-08-24T05:17:18.195Z,99.90
2022-08-24T05:19:46.276Z,99.90
2022-08-24T05:22:15.644Z,99.90
2022-08-24T05:24:43.710Z,99.90
2022-08-24T05:27:14.239Z,99.90
2022-08-24T05:29:42.685Z,99.90
2022-08-24T05:32:11.214Z,99.90
2022-08-24T05:34:39.275Z,99.90
2022-08-24T05:37:07.453Z,99.90
2022-08-24T05:39:36.868Z,99.90
2022-08-24T05:42:05.695Z,99.90
2022-08-24T05:44:33.721Z,99.90
2022-08-24T05:47:02.866Z,99.90
2022-08-24T05:49:31.068Z,99.90
2022-08-24T05:51:59.660Z,99.90
2022-08-24T05:54:27.849Z,99.90
2022-08-24T05:57:01.980Z,99.90
2022-08-24T05:59:30.019Z,99.90
2022-08-24T06:01:58.277Z,99.90
2022-08-24T06:04:28.101Z,99.90
2022-08-24T06:06:56.277Z,99.90
2022-08-24T06:09:24.334Z,99.90
2022-08-24T06:11:52.587Z,99.90
2022-08-24T06:14:26.769Z,99.90
2022-08-24T06:16:55.396Z,99.90
2022-08-24T06:19:24.655Z,99.90
2022-08-24T06:21:54.099Z,99.90
2022-08-24T06:24:43.304Z,99.90
2022-08-24T06:27:22.413Z,99.90
2022-08-24T06:29:54.650Z,99.90
2022-08-24T06:32:23.184Z,99.90
2022-08-24T06:34:51.536Z,99.90
2022-08-24T06:37:19.565Z,99.90
2022-08-24T06:39:48.350Z,99.90
2022-08-24T06:42:25.584Z,99.90
2022-08-24T06:44:55.010Z,99.90
2022-08-24T06:47:24.365Z,99.90
2022-08-24T06:49:52.565Z,99.90
2022-08-24T06:52:20.651Z,99.90
2022-08-24T06:54:48.913Z,99.90
2022-08-24T06:57:17.032Z,99.90
2022-08-24T06:59:45.979Z,99.90
2022-08-24T07:02:16.281Z,99.90
2022-08-24T07:04:44.365Z,99.90
2022-08-24T07:07:12.780Z,99.90
2022-08-24T07:09:40.877Z,99.90
2022-08-24T07:12:09.383Z,99.90
2022-08-24T07:14:37.550Z,99.90
2022-08-24T07:17:06.088Z,99.90
2022-08-24T07:19:35.559Z,99.90
2022-08-24T07:22:03.478Z,99.90
2022-08-24T07:24:32.281Z,99.90
2022-08-24T07:27:00.413Z,99.90
2022-08-24T07:29:47.286Z,99.90
2022-08-24T07:32:16.712Z,99.90
2022-08-24T07:34:46.244Z,99.90
2022-08-24T07:37:14.204Z,99.90
2022-08-24T07:39:42.711Z,99.90
2022-08-24T07:42:14.063Z,99.90
2022-08-24T07:44:44.180Z,99.90
2022-08-24T07:47:36.990Z,99.90
2022-08-24T07:50:02.355Z,99.90
2022-08-24T07:52:31.265Z,99.90
2022-08-24T07:54:59.709Z,99.90
2022-08-24T07:57:28.043Z,99.90
2022-08-24T07:59:56.323Z,99.90
2022-08-24T08:02:26.966Z,99.90
2022-08-24T08:04:58.915Z,99.90
2022-08-24T08:07:28.662Z,99.90
2022-08-24T08:09:56.846Z,99.90
2022-08-24T08:12:25.130Z,99.90
2022-08-24T08:14:53.308Z,99.90
2022-08-24T08:17:21.375Z,99.90
2022-08-24T08:19:49.501Z,99.70
2022-08-24T08:22:35.186Z,94.70
2022-08-24T08:25:05.412Z,99.90
2022-08-24T08:27:34.888Z,97.00
2022-08-24T08:30:02.811Z,99.40
2022-08-24T08:32:31.347Z,96.60
2022-08-24T08:35:02.087Z,98.40
2022-08-24T08:37:31.166Z,95.10
2022-08-24T08:39:59.694Z,95.90
2022-08-24T08:42:55.451Z,94.00
2022-08-24T08:45:36.004Z,91.80
2022-08-24T08:48:47.337Z,95.20
2022-08-24T08:51:46.836Z,96.60
2022-08-24T08:54:31.055Z,92.80
2022-08-24T08:57:19.572Z,93.90
2022-08-24T09:00:08.997Z,92.60
2022-08-24T09:03:05.161Z,92.50
2022-08-24T09:06:05.100Z,93.50
2022-08-24T09:09:01.218Z,89.60
2022-08-24T09:11:41.381Z,88.90
2022-08-24T09:14:32.692Z,93.60
2022-08-24T09:17:22.184Z,81.60
2022-08-24T09:20:06.788Z,55.40
2022-08-24T09:22:39.604Z,38.60
2022-08-24T09:25:26.605Z,55.10
2022-08-24T09:28:10.305Z,36.40
2022-08-24T09:30:57.589Z,45.50
2022-08-24T09:33:31.087Z,36.70
2022-08-24T09:36:08.862Z,28.40
2022-08-24T09:38:57.305Z,13.30
2022-08-24T09:41:52.561Z,1.00
2022-08-24T09:44:49.983Z,3.30
2022-08-24T09:47:52.623Z,1.00
2022-08-24T09:50:36.109Z,1.00
2022-08-24T09:53:40.604Z,1.00
2022-08-24T09:56:36.245Z,1.00
2022-08-24T09:59:21.495Z,1.00
2022-08-24T10:02:00.376Z,1.00
2022-08-24T10:04:33.956Z,1.00
2022-08-24T10:07:15.853Z,1.00
2022-08-24T10:10:03.301Z,1.00
2022-08-24T10:12:54.141Z,1.00
2022-08-24T10:15:29.989Z,1.00
2022-08-24T10:18:35.245Z,1.00
2022-08-24T10:21:27.448Z,1.00
2022-08-24T10:24:16.693Z,1.00
2022-08-24T10:26:55.825Z,1.00
2022-08-24T10:29:43.024Z,1.00
2022-08-24T10:32:23.479Z,1.00
2022-08-24T10:35:03.120Z,1.00
2022-08-24T10:37:52.356Z,1.00
2022-08-24T10:40:28.625Z,1.00
2022-08-24T10:43:28.657Z,1.00
2022-08-24T10:46:19.564Z,1.00
2022-08-24T10:49:13.410Z,1.00
2022-08-24T10:51:59.304Z,1.00
2022-08-24T10:54:27.887Z,1.00
2022-08-24T10:57:11.583Z,1.00
2022-08-24T10:59:50.555Z,1.00
2022-08-24T11:02:31.964Z,1.00
2022-08-24T11:05:01.566Z,1.00
2022-08-24T11:07:30.223Z,1.00
2022-08-24T11:10:01.843Z,1.00
2022-08-24T11:12:33.300Z,1.00
2022-08-24T11:15:05.047Z,1.00
2022-08-24T11:17:35.499Z,1.00
2022-08-24T11:20:03.995Z,1.00
2022-08-24T11:22:36.897Z,1.00
2022-08-24T11:25:14.522Z,1.00
2022-08-24T11:27:47.177Z,1.00
2022-08-24T11:30:24.625Z,1.00
2022-08-24T11:32:55.067Z,1.00
2022-08-24T11:35:26.716Z,1.00
2022-08-24T11:37:57.739Z,1.00
2022-08-24T11:40:30.075Z,1.00
2022-08-24T11:43:21.146Z,1.00
2022-08-24T11:46:02.546Z,1.00
2022-08-24T11:48:43.715Z,1.00
2022-08-24T11:51:18.445Z,1.00
2022-08-24T11:54:00.500Z,1.00
2022-08-24T11:56:34.331Z,1.00
2022-08-24T11:59:12.101Z,1.00
2022-08-24T12:01:46.975Z,1.00
2022-08-24T12:04:30.025Z,1.00
2022-08-24T12:07:05.997Z,1.00
2022-08-24T12:09:48.283Z,1.00
2022-08-24T12:12:22.524Z,1.00
2022-08-24T12:15:00.391Z,1.00
2022-08-24T12:17:35.400Z,1.00
2022-08-24T12:20:10.909Z,1.00
2022-08-24T12:22:41.011Z,1.00
2022-08-24T12:25:30.870Z,1.00
2022-08-24T12:27:59.719Z,1.00
2022-08-24T12:30:29.297Z,1.00
2022-08-24T12:33:02.510Z,1.00
2022-08-24T12:35:35.334Z,1.00
2022-08-24T12:38:09.958Z,1.00
2022-08-24T12:40:41.588Z,1.00
2022-08-24T12:43:13.417Z,1.00
2022-08-24T12:45:43.039Z,1.00
2022-08-24T12:48:21.466Z,1.00
2022-08-24T12:51:11.964Z,1.00
2022-08-24T12:54:01.717Z,1.00
2022-08-24T12:56:46.219Z,1.00
2022-08-24T12:59:21.400Z,1.00
2022-08-24T13:02:03.845Z,1.00
2022-08-24T13:04:37.506Z,1.00
2022-08-24T13:07:10.496Z,1.00
2022-08-24T13:09:42.396Z,1.00
2022-08-24T13:12:52.351Z,1.00
2022-08-24T13:15:26.229Z,1.00
2022-08-24T13:18:02.972Z,1.00
2022-08-24T13:20:55.744Z,1.00
2022-08-24T13:23:27.311Z,1.00
2022-08-24T13:25:59.543Z,1.00
2022-08-24T13:28:45.256Z,1.00
2022-08-24T13:31:26.787Z,1.00
2022-08-24T13:34:00.543Z,1.00
2022-08-24T13:36:45.569Z,1.00
2022-08-24T13:39:31.814Z,1.00
2022-08-24T13:42:23.005Z,1.00
2022-08-24T13:45:05.393Z,1.00
2022-08-24T13:47:48.053Z,1.00
2022-08-24T13:50:34.060Z,1.00
2022-08-24T13:53:17.774Z,1.00
2022-08-24T13:55:51.323Z,1.00
2022-08-24T13:58:33.828Z,1.00
2022-08-24T14:01:19.989Z,1.00
2022-08-24T14:04:12.927Z,1.00
2022-08-24T14:06:55.257Z,1.00
2022-08-24T14:09:37.922Z,1.00
2022-08-24T14:12:17.901Z,1.00
2022-08-24T14:15:03.088Z,1.00
2022-08-24T14:17:55.371Z,1.00
2022-08-24T14:20:55.086Z,1.00
2022-08-24T14:23:44.870Z,1.00
2022-08-24T14:26:50.989Z,1.00
2022-08-24T14:29:46.594Z,1.00
2022-08-24T14:32:45.947Z,1.00
2022-08-24T14:35:40.533Z,1.00
2022-08-24T14:38:33.335Z,1.00
2022-08-24T14:41:20.441Z,1.00
2022-08-24T14:44:09.482Z,1.00
2022-08-24T14:46:40.413Z,1.00
2022-08-24T14:49:17.499Z,1.00
2022-08-24T14:52:00.279Z,1.00
2022-08-24T14:54:39.747Z,1.00
2022-08-24T14:57:43.183Z,1.00
2022-08-24T15:00:15.184Z,1.00
2022-08-24T15:03:23.680Z,1.00
2022-08-24T15:06:26.382Z,1.00
2022-08-24T15:09:08.443Z,1.00
2022-08-24T15:11:39.829Z,1.00
2022-08-24T15:14:15.168Z,1.00
2022-08-24T15:16:54.273Z,1.00
2022-08-24T15:19:31.421Z,1.00
2022-08-24T15:22:04.608Z,1.00
2022-08-24T15:24:41.277Z,1.00
2022-08-24T15:27:19.993Z,1.00
2022-08-24T15:29:53.724Z,1.00
2022-08-24T15:32:28.237Z,1.00
2022-08-24T15:34:59.155Z,1.00
2022-08-24T15:37:32.969Z,1.00
2022-08-24T15:40:02.134Z,1.00
2022-08-24T15:42:31.226Z,1.00
2022-08-24T15:45:03.780Z,1.00
2022-08-24T15:47:34.594Z,1.00
2022-08-24T15:50:06.410Z,1.00
2022-08-24T15:52:43.021Z,1.00
2022-08-24T15:55:31.761Z,1.00
2022-08-24T15:58:28.003Z,1.00
2022-08-24T16:01:36.822Z,1.00
2022-08-24T16:04:06.767Z,1.00
2022-08-24T16:06:42.153Z,1.00
2022-08-24T16:09:35.237Z,1.00
2022-08-24T16:12:06.167Z,1.00
2022-08-24T16:14:37.157Z,1.00
2022-08-24T16:17:27.494Z,1.00
2022-08-24T16:19:59.539Z,1.00
2022-08-24T16:22:32.149Z,1.00
2022-08-24T16:25:25.589Z,1.00
2022-08-24T16:27:58.213Z,1.00
2022-08-24T16:30:38.363Z,1.00
2022-08-24T16:33:08.447Z,1.00
2022-08-24T16:35:36.481Z,1.00
2022-08-24T16:38:04.910Z,1.00
2022-08-24T16:40:34.561Z,1.00
2022-08-24T16:43:03.101Z,1.00
2022-08-24T16:45:35.741Z,1.00
2022-08-24T16:48:04.870Z,1.00
2022-08-24T16:50:34.462Z,1.00
2022-08-24T16:53:02.550Z,1.00
2022-08-24T16:55:30.669Z,1.00
2022-08-24T16:58:01.559Z,1.00
2022-08-24T17:00:30.106Z,1.00
2022-08-24T17:02:58.559Z,1.00
2022-08-24T17:05:27.595Z,1.00
2022-08-24T17:07:58.925Z,1.00
2022-08-24T17:10:27.572Z,1.00
2022-08-24T17:12:55.755Z,1.00
2022-08-24T17:15:24.746Z,1.00
2022-08-24T17:17:57.299Z,1.00
2022-08-24T17:20:25.917Z,1.00
2022-08-24T17:22:55.771Z,1.00
2022-08-24T17:25:24.375Z,1.00
2022-08-24T17:27:54.327Z,1.00
2022-08-24T17:30:23.731Z,1.00
2022-08-24T17:32:52.395Z,1.00
2022-08-24T17:35:21.675Z,1.00
2022-08-24T17:37:49.627Z,1.00
2022-08-24T17:40:22.517Z,1.00
2022-08-24T17:43:02.071Z,1.00
2022-08-24T17:45:30.350Z,1.00
2022-08-24T17:47:58.514Z,1.00
2022-08-24T17:50:28.370Z,1.00
2022-08-24T17:53:00.404Z,1.00
2022-08-24T17:55:30.231Z,1.00
2022-08-24T17:57:59.058Z,1.00
2022-08-24T18:00:27.211Z,1.00
2022-08-24T18:02:55.597Z,1.00
2022-08-24T18:05:24.046Z,1.30
2022-08-24T18:07:54.596Z,6.50
2022-08-24T18:10:25.858Z,8.90
2022-08-24T18:12:55.719Z,7.00
2022-08-24T18:15:34.689Z,7.90
2022-08-24T18:18:08.323Z,12.50
2022-08-24T18:20:41.394Z,12.40
2022-08-24T18:23:12.050Z,12.50
2022-08-24T18:25:45.156Z,15.10
2022-08-24T18:28:16.730Z,17.10
2022-08-24T18:30:46.274Z,17.60
2022-08-24T18:33:14.384Z,22.30
2022-08-24T18:35:42.547Z,27.40
2022-08-24T18:38:10.650Z,30.20
2022-08-24T18:40:39.299Z,29.90
2022-08-24T18:43:08.147Z,37.00
2022-08-24T18:45:37.679Z,39.70
2022-08-24T18:48:06.327Z,37.90
2022-08-24T18:50:37.746Z,41.10
2022-08-24T18:53:08.805Z,43.00
2022-08-24T18:55:38.630Z,47.20
2022-08-24T18:58:06.869Z,49.00
2022-08-24T19:00:37.420Z,46.00
2022-08-24T19:03:08.189Z,50.80
2022-08-24T19:05:36.412Z,55.60
2022-08-24T19:08:06.446Z,49.90
2022-08-24T19:10:37.541Z,50.80
2022-08-24T19:13:09.616Z,54.60
2022-08-24T19:15:40.181Z,56.20
2022-08-24T19:18:10.354Z,62.40
2022-08-24T19:20:42.396Z,60.40
2022-08-24T19:23:17.372Z,68.90
2022-08-24T19:25:46.565Z,66.00
2022-08-24T19:28:15.071Z,69.90
2022-08-24T19:30:46.730Z,74.20
2022-08-24T19:33:20.317Z,81.00
2022-08-24T19:35:48.375Z,74.70
2022-08-24T19:38:16.643Z,74.30
2022-08-24T19:40:48.072Z,75.90
2022-08-24T19:43:16.953Z,75.10
2022-08-24T19:46:03.878Z,75.20
2022-08-24T19:48:33.547Z,76.20
2022-08-24T19:51:03.715Z,74.00
2022-08-24T19:53:33.144Z,72.60
2022-08-24T19:56:01.758Z,78.10
2022-08-24T19:58:32.020Z,85.40
2022-08-24T20:01:05.183Z,78.30
2022-08-24T20:03:33.453Z,84.50
2022-08-24T20:06:01.605Z,83.30
2022-08-24T20:08:29.691Z,85.80
2022-08-24T20:11:00.364Z,87.70
2022-08-24T20:13:28.843Z,88.80
2022-08-24T20:15:58.355Z,83.90
2022-08-24T20:18:32.654Z,83.10
2022-08-24T20:21:01.244Z,83.40
2022-08-24T20:23:30.079Z,81.80
2022-08-24T20:26:00.110Z,78.90
2022-08-24T20:28:37.988Z,80.60
2022-08-24T20:31:06.884Z,79.30
2022-08-24T20:33:36.491Z,78.50
2022-08-24T20:36:05.235Z,83.10
2022-08-24T20:38:34.128Z,79.70
2022-08-24T20:41:02.705Z,82.10
2022-08-24T20:43:30.713Z,80.90
2022-08-24T20:45:58.795Z,86.20
2022-08-24T20:48:30.236Z,83.50
2022-08-24T20:53:53.024Z,87.30
2022-08-24T20:56:30.675Z,88.10
2022-08-24T20:58:59.958Z,90.20
2022-08-24T21:01:28.040Z,92.80
2022-08-24T21:03:58.450Z,94.30
2022-08-24T21:06:32.408Z,94.70
2022-08-24T21:09:00.667Z,96.70
2022-08-24T21:11:28.700Z,95.90
2022-08-24T21:13:56.799Z,95.90
2022-08-24T21:16:24.934Z,94.50
2022-08-24T21:18:53.116Z,95.70
2022-08-24T21:21:21.190Z,95.80
2022-08-24T21:23:50.602Z,95.60
2022-08-24T21:26:20.375Z,96.00
2022-08-24T21:28:49.894Z,97.90
2022-08-24T21:31:17.757Z,96.30
2022-08-24T21:34:03.386Z,98.10
2022-08-24T21:36:32.119Z,96.80
2022-08-24T21:39:05.435Z,97.30
2022-08-24T21:41:36.702Z,95.80
2022-08-24T21:44:04.942Z,96.70
2022-08-24T21:46:35.277Z,96.90
2022-08-24T21:49:03.933Z,97.50
2022-08-24T21:51:32.000Z,97.10
2022-08-24T21:54:02.625Z,97.00
2022-08-24T21:56:33.047Z,99.90
2022-08-24T21:59:01.486Z,98.00
2022-08-24T22:01:29.731Z,99.30
2022-08-24T22:03:59.184Z,99.90
2022-08-24T22:06:31.309Z,99.50
2022-08-24T22:09:00.808Z,99.90
2022-08-24T22:11:32.640Z,99.90
2022-08-24T22:14:02.206Z,97.50
2022-08-24T22:16:30.612Z,99.70
2022-08-24T22:19:00.725Z,99.70
2022-08-24T22:21:31.531Z,98.80
2022-08-24T22:24:04.801Z,97.60
2022-08-24T22:26:34.522Z,96.60
2022-08-24T22:29:03.588Z,97.00
2022-08-24T22:31:34.434Z,96.50
2022-08-24T22:34:05.149Z,97.40
2022-08-24T22:36:33.192Z,98.40
2022-08-24T22:39:01.812Z,97.70
2022-08-24T22:41:30.777Z,96.90
2022-08-24T22:44:20.033Z,96.10
2022-08-24T22:46:49.743Z,95.10
2022-08-24T22:49:19.024Z,96.70
2022-08-24T22:51:47.193Z,95.10
2022-08-24T22:54:15.653Z,95.70
2022-08-24T22:56:45.584Z,98.40
2022-08-24T22:59:18.137Z,97.80
2022-08-24T23:01:48.716Z,97.10
2022-08-24T23:04:19.949Z,95.80
2022-08-24T23:06:48.123Z,97.00
2022-08-24T23:09:16.573Z,96.00
2022-08-24T23:11:45.376Z,95.80
2022-08-24T23:14:14.649Z,95.90
2022-08-24T23:16:47.816Z,96.20
2022-08-24T23:19:34.404Z,96.00
2022-08-24T23:22:04.785Z,95.60
2022-08-24T23:24:34.020Z,95.80
2022-08-24T23:27:02.738Z,96.10
2022-08-24T23:29:31.083Z,97.40
2022-08-24T23:32:00.594Z,99.10
2022-08-24T23:34:28.464Z,97.50
2022-08-24T23:36:56.553Z,99.70
2022-08-24T23:39:24.933Z,96.90
2022-08-24T23:41:53.528Z,98.20
2022-08-24T23:44:24.040Z,98.70
2022-08-24T23:46:53.681Z,99.20
2022-08-24T23:49:24.327Z,99.80
2022-08-24T23:51:53.121Z,99.90
2022-08-24T23:54:22.616Z,99.40
2022-08-24T23:56:52.700Z,99.90
2022-08-24T23:59:23.809Z,99.90
